Time;durP1;ratioP1;P1;durP2;ratioP2;P2;SDS_P1;SDS_P2;PMS_P1;PMS_P2;Temp;Humidity;BMP_temperature;BMP_pressure;BME280_temperature;BME280_humidity;BME280_pressure;Samples;Min_cycle;Max_cycle;Signal;HPM_P1;HPM_P2
2023/12/20 00:00:55;;;;;;;5.60;3.75;;;;;;;7.58;100.00;101004.81;5009466;28;20049;-70
2023/12/20 00:03:20;;;;;;;6.30;3.53;;;;;;;7.60;100.00;101007.38;5051468;28;20037;-70
2023/12/20 00:05:47;;;;;;;6.20;3.80;;;;;;;7.62;100.00;101003.13;5010360;28;20531;-70
2023/12/20 00:08:13;;;;;;;6.32;4.00;;;;;;;7.61;100.00;100993.66;5008356;28;20033;-70
2023/12/20 00:10:38;;;;;;;6.85;4.45;;;;;;;7.62;100.00;100992.84;5004445;28;20069;-71
2023/12/20 00:13:03;;;;;;;7.15;4.30;;;;;;;7.63;100.00;100995.41;5014080;28;20045;-70
2023/12/20 00:15:29;;;;;;;7.07;4.80;;;;;;;7.63;100.00;100997.97;5012840;28;20128;-69
2023/12/20 00:17:54;;;;;;;8.43;4.07;;;;;;;7.65;100.00;101001.44;5044636;28;20060;-70
2023/12/20 00:20:20;;;;;;;6.57;4.68;;;;;;;7.66;100.00;100997.13;5034479;28;20037;-69
2023/12/20 00:22:46;;;;;;;6.53;4.38;;;;;;;7.65;100.00;100998.88;5033173;28;20079;-70
2023/12/20 00:25:11;;;;;;;6.20;4.20;;;;;;;7.66;100.00;100986.84;5015048;28;20483;-69
2023/12/20 00:27:37;;;;;;;6.55;4.55;;;;;;;7.68;100.00;100995.44;5003515;28;20037;-70
2023/12/20 00:30:02;;;;;;;7.53;4.63;;;;;;;7.67;100.00;100998.84;5006873;28;20041;-69
2023/12/20 00:32:31;;;;;;;6.40;4.13;;;;;;;7.68;100.00;101004.03;5021122;28;20041;-70
2023/12/20 00:34:56;;;;;;;6.60;4.50;;;;;;;7.70;100.00;100998.88;5042748;28;20029;-70
2023/12/20 00:37:22;;;;;;;5.88;3.92;;;;;;;7.70;100.00;101006.59;5020595;28;20542;-69
2023/12/20 00:39:50;;;;;;;7.72;4.32;;;;;;;7.70;100.00;100994.59;5042795;28;20025;-69
2023/12/20 00:42:16;;;;;;;7.93;4.40;;;;;;;7.72;100.00;100999.75;5041031;28;20036;-70
2023/12/20 00:44:41;;;;;;;5.80;4.13;;;;;;;7.73;100.00;101002.34;5008027;28;20041;-70
2023/12/20 00:47:07;;;;;;;7.30;4.40;;;;;;;7.74;100.00;101006.66;5047190;28;20021;-69
2023/12/20 00:49:32;;;;;;;7.25;4.65;;;;;;;7.74;100.00;101014.38;5052793;28;20877;-69
2023/12/20 00:51:58;;;;;;;6.28;4.38;;;;;;;7.74;100.00;101014.38;5012097;28;20076;-70
2023/12/20 00:54:23;;;;;;;5.90;4.03;;;;;;;7.73;100.00;100999.78;5004219;28;20037;-70
2023/12/20 00:56:49;;;;;;;6.40;4.55;;;;;;;7.75;100.00;101008.34;5012911;28;20246;-69
2023/12/20 00:59:16;;;;;;;5.70;4.00;;;;;;;7.76;100.00;101011.78;5042990;28;20044;-69
2023/12/20 01:01:42;;;;;;;5.75;3.40;;;;;;;7.76;100.00;101010.09;5015091;28;20050;-70
2023/12/20 01:04:10;;;;;;;4.88;3.50;;;;;;;7.76;100.00;101001.50;5017297;28;20060;-70
2023/12/20 01:06:36;;;;;;;5.28;3.97;;;;;;;7.75;100.00;101007.47;5013078;28;20041;-70
2023/12/20 01:09:01;;;;;;;6.07;4.15;;;;;;;7.73;100.00;101022.06;5013970;28;20045;-69
2023/12/20 01:11:26;;;;;;;11.40;5.78;;;;;;;7.74;100.00;101027.22;5006082;28;20037;-71
2023/12/20 01:13:52;;;;;;;7.32;5.45;;;;;;;7.76;100.00;101038.38;5017892;28;20025;-69
2023/12/20 01:16:17;;;;;;;10.68;6.40;;;;;;;7.76;100.00;101033.25;5008154;28;20492;-69
2023/12/20 01:18:42;;;;;;;12.45;6.57;;;;;;;7.78;100.00;101028.09;5005774;28;20033;-69
2023/12/20 01:21:11;;;;;;;14.93;8.10;;;;;;;7.80;100.00;101026.41;5020851;28;20045;-69
2023/12/20 01:23:36;;;;;;;15.60;9.32;;;;;;;7.82;100.00;101029.84;5016149;28;20034;-70
2023/12/20 01:26:02;;;;;;;14.68;9.35;;;;;;;7.84;100.00;101021.28;5018501;28;20346;-68
2023/12/20 01:28:28;;;;;;;17.85;10.10;;;;;;;7.87;100.00;101025.59;5026035;28;20435;-69
2023/12/20 01:30:53;;;;;;;16.08;9.93;;;;;;;7.84;100.00;101026.44;5018829;28;20046;-68
2023/12/20 01:33:19;;;;;;;17.58;10.82;;;;;;;7.85;100.00;101035.00;5004934;28;20068;-68
2023/12/20 01:35:44;;;;;;;21.38;11.43;;;;;;;7.85;100.00;101035.88;5014569;28;20202;-68
2023/12/20 01:38:10;;;;;;;21.42;11.88;;;;;;;7.85;100.00;101035.88;5020576;28;20041;-69
2023/12/20 01:40:35;;;;;;;21.00;11.68;;;;;;;7.84;100.00;101034.16;5020851;28;20041;-69
2023/12/20 01:43:11;;;;;;;21.65;11.80;;;;;;;7.86;100.00;101045.31;5018790;28;20048;-69
2023/12/20 01:45:37;;;;;;;22.75;11.70;;;;;;;7.84;100.00;101041.00;5021940;28;20440;-68
2023/12/20 01:48:03;;;;;;;18.85;11.70;;;;;;;7.79;100.00;101040.13;5017188;28;20034;-68
2023/12/20 01:50:31;;;;;;;19.42;12.05;;;;;;;7.71;100.00;101039.22;5019351;28;20033;-68
2023/12/20 01:52:59;;;;;;;18.42;11.63;;;;;;;7.66;100.00;101046.00;5018682;28;20535;-69
2023/12/20 01:55:27;;;;;;;22.05;13.45;;;;;;;7.66;100.00;101040.88;5037841;28;20026;-69
2023/12/20 01:57:53;;;;;;;27.08;12.90;;;;;;;7.62;100.00;101055.44;5017429;28;20132;-67
2023/12/20 02:00:23;;;;;;;24.65;12.50;;;;;;;7.62;100.00;101058.00;5006435;28;20633;-68
2023/12/20 02:02:49;;;;;;;27.00;14.35;;;;;;;7.58;100.00;101069.09;5019532;28;20037;-69
2023/12/20 02:05:15;;;;;;;24.13;13.05;;;;;;;7.60;100.00;101074.25;5022691;28;20068;-68
2023/12/20 02:07:41;;;;;;;23.23;12.93;;;;;;;7.60;100.00;101066.53;5020286;28;20123;-68
2023/12/20 02:10:07;;;;;;;25.15;13.45;;;;;;;7.62;100.00;101077.72;5026831;28;20469;-68
2023/12/20 02:12:33;;;;;;;19.52;11.25;;;;;;;7.64;100.00;101074.31;5017731;28;20037;-68
2023/12/20 02:14:58;;;;;;;19.23;11.27;;;;;;;7.66;100.00;101064.88;5019434;28;20056;-68
2023/12/20 02:17:24;;;;;;;19.65;10.23;;;;;;;7.64;100.00;101068.28;5012824;28;20038;-68
2023/12/20 02:19:49;;;;;;;18.63;9.75;;;;;;;7.58;100.00;101069.09;5022240;28;20034;-68
2023/12/20 02:22:15;;;;;;;16.50;9.07;;;;;;;7.47;100.00;101075.00;5016685;28;20084;-68
2023/12/20 02:24:41;;;;;;;16.92;8.43;;;;;;;7.42;100.00;101080.09;5008460;28;20136;-68
2023/12/20 02:27:07;;;;;;;13.30;7.55;;;;;;;7.30;100.00;101085.13;5022456;28;20033;-69
2023/12/20 02:29:34;;;;;;;10.50;6.30;;;;;;;7.18;100.00;101088.44;5009963;28;20111;-68
2023/12/20 02:31:59;;;;;;;15.43;7.03;;;;;;;7.11;100.00;101096.03;5019966;28;20036;-69
2023/12/20 02:34:25;;;;;;;21.33;6.32;;;;;;;7.05;100.00;101095.97;5021586;28;20030;-68
2023/12/20 02:36:50;;;;;;;16.92;4.78;;;;;;;6.95;100.00;101095.00;5010845;28;20038;-67
2023/12/20 02:39:16;;;;;;;19.23;4.72;;;;;;;6.83;100.00;101102.56;5020047;28;20069;-67
2023/12/20 02:41:42;;;;;;;14.27;4.60;;;;;;;6.79;100.00;101109.38;5014347;28;20067;-68
2023/12/20 02:44:07;;;;;;;15.05;4.15;;;;;;;6.66;100.00;101114.34;5010643;28;20328;-67
2023/12/20 02:46:33;;;;;;;17.25;4.45;;;;;;;6.56;100.00;101117.63;5015302;28;20300;-67
2023/12/20 02:48:58;;;;;;;14.98;3.55;;;;;;;6.55;100.00;101115.91;5013371;28;20041;-68
2023/12/20 02:51:24;;;;;;;12.35;3.60;;;;;;;6.58;100.00;101114.25;5015955;28;20034;-67
2023/12/20 02:53:49;;;;;;;15.95;3.40;;;;;;;6.56;100.00;101118.50;5020615;28;20064;-67
2023/12/20 02:56:14;;;;;;;15.65;3.13;;;;;;;6.53;100.00;101120.16;5024197;28;20540;-67
2023/12/20 02:58:40;;;;;;;8.00;2.58;;;;;;;6.44;100.00;101118.31;5022486;28;20598;-67
2023/12/20 03:01:05;;;;;;;16.83;2.88;;;;;;;6.38;100.00;101125.94;5002583;28;20102;-67
2023/12/20 03:03:31;;;;;;;18.50;3.83;;;;;;;6.25;100.00;101119.78;5053189;28;20041;-67
2023/12/20 03:05:57;;;;;;;13.23;3.35;;;;;;;6.22;100.00;101127.44;5017675;28;20042;-67
2023/12/20 03:08:22;;;;;;;16.02;3.10;;;;;;;6.30;100.00;101130.09;5002845;28;20041;-67
2023/12/20 03:10:48;;;;;;;10.55;2.80;;;;;;;6.35;100.00;101137.03;5005398;28;20091;-67
2023/12/20 03:13:13;;;;;;;13.77;3.28;;;;;;;6.38;100.00;101136.19;5034693;28;20099;-67
2023/12/20 03:15:39;;;;;;;11.23;3.03;;;;;;;6.44;100.00;101128.59;5005328;28;20030;-67
2023/12/20 03:18:05;;;;;;;14.38;3.50;;;;;;;6.43;100.00;101124.31;5011983;28;20547;-67
2023/12/20 03:20:33;;;;;;;15.20;2.95;;;;;;;6.43;100.00;101126.88;5004511;28;20029;-67
2023/12/20 03:23:00;;;;;;;11.25;2.78;;;;;;;6.43;100.00;101136.28;5014065;28;20057;-67
2023/12/20 03:25:25;;;;;;;9.98;2.40;;;;;;;6.43;100.00;101126.88;5013641;28;20033;-67
2023/12/20 03:27:50;;;;;;;14.98;3.22;;;;;;;6.44;100.00;101132.88;5004456;28;20041;-67
2023/12/20 03:30:16;;;;;;;11.07;2.75;;;;;;;6.46;100.00;101129.50;5009704;28;20152;-67
2023/12/20 03:32:41;;;;;;;13.18;2.85;;;;;;;6.46;100.00;101119.22;5021617;28;20443;-67
2023/12/20 03:35:07;;;;;;;10.75;2.75;;;;;;;6.48;100.00;101114.09;5018933;28;20112;-67
2023/12/20 03:37:32;;;;;;;12.52;2.90;;;;;;;6.52;100.00;101118.44;5024125;28;20516;-67
2023/12/20 03:39:57;;;;;;;13.55;3.10;;;;;;;6.52;100.00;101109.03;5012828;28;20029;-68
2023/12/20 03:42:23;;;;;;;13.05;3.40;;;;;;;6.53;100.00;101104.75;5009642;28;20519;-68
2023/12/20 03:44:48;;;;;;;16.48;3.80;;;;;;;6.54;100.00;101114.19;5014488;28;20864;-69
2023/12/20 03:47:14;;;;;;;16.88;3.08;;;;;;;6.57;100.00;101116.78;5006881;28;20429;-68
2023/12/20 03:49:39;;;;;;;9.60;2.70;;;;;;;6.59;100.00;101123.66;5002579;28;20061;-68
2023/12/20 03:52:05;;;;;;;16.10;3.70;;;;;;;6.60;100.00;101117.69;5012160;28;20037;-68
2023/12/20 03:54:30;;;;;;;14.98;3.40;;;;;;;6.61;100.00;101121.13;5020322;28;20038;-67
2023/12/20 03:56:56;;;;;;;15.07;3.53;;;;;;;6.65;100.00;101125.44;5013663;28;20049;-68
2023/12/20 03:59:22;;;;;;;17.65;3.83;;;;;;;6.66;100.00;101124.63;5002032;28;20041;-67
2023/12/20 04:01:47;;;;;;;17.92;4.30;;;;;;;6.66;100.00;101122.91;5020029;28;20025;-68
2023/12/20 04:04:13;;;;;;;11.35;3.28;;;;;;;6.67;100.00;101123.78;5025143;28;20546;-67
2023/12/20 04:06:39;;;;;;;20.38;4.55;;;;;;;6.67;100.00;101121.22;5002352;28;20029;-68
2023/12/20 04:09:05;;;;;;;15.32;4.35;;;;;;;6.68;100.00;101122.91;5004913;28;20045;-67
2023/12/20 04:11:33;;;;;;;10.40;4.30;;;;;;;6.66;100.00;101128.06;5016595;28;20086;-67
2023/12/20 04:13:58;;;;;;;19.52;4.15;;;;;;;6.68;100.00;101133.19;5011446;28;20022;-68
2023/12/20 04:16:24;;;;;;;19.30;4.18;;;;;;;6.68;100.00;101126.34;5028302;28;20693;-67
2023/12/20 04:18:49;;;;;;;17.02;3.10;;;;;;;6.67;100.00;101126.34;5005666;28;20044;-68
2023/12/20 04:21:14;;;;;;;23.98;4.47;;;;;;;6.65;100.00;101131.44;5000518;28;20128;-68
2023/12/20 04:23:40;;;;;;;17.65;3.97;;;;;;;6.65;100.00;101123.75;5033307;28;20424;-68
2023/12/20 04:26:05;;;;;;;13.85;3.40;;;;;;;6.66;100.00;101122.91;5015142;28;20720;-68
2023/12/20 04:28:31;;;;;;;12.43;3.72;;;;;;;6.66;100.00;101122.91;5000265;28;20230;-67
2023/12/20 04:30:56;;;;;;;14.25;3.72;;;;;;;6.66;100.00;101119.47;5017004;28;20136;-68
2023/12/20 04:33:22;;;;;;;19.98;3.95;;;;;;;6.68;100.00;101115.22;5005206;28;20117;-66
2023/12/20 04:35:48;;;;;;;16.23;3.90;;;;;;;6.68;100.00;101120.34;5011507;28;20034;-68
2023/12/20 04:38:13;;;;;;;14.82;4.05;;;;;;;6.66;100.00;101111.78;5024087;28;20033;-67
2023/12/20 04:40:40;;;;;;;18.38;5.13;;;;;;;6.67;100.00;101122.09;5019577;28;20041;-71
2023/12/20 04:43:06;;;;;;;19.48;4.25;;;;;;;6.70;100.00;101128.97;5013326;28;20044;-70
2023/12/20 04:45:34;;;;;;;22.20;4.07;;;;;;;6.71;100.00;101118.69;5011634;28;20095;-69
2023/12/20 04:48:02;;;;;;;21.98;4.32;;;;;;;6.68;100.00;101118.66;5011878;28;20118;-68
2023/12/20 04:50:27;;;;;;;19.92;3.88;;;;;;;6.68;100.00;101130.63;5012999;28;20048;-66
2023/12/20 04:52:53;;;;;;;18.00;4.88;;;;;;;6.68;100.00;101136.63;5009665;28;20037;-66
2023/12/20 04:55:21;;;;;;;15.52;4.47;;;;;;;6.72;100.00;101146.13;5018045;28;20300;-65
2023/12/20 04:57:46;;;;;;;17.95;4.80;;;;;;;6.72;100.00;101135.84;5018831;28;20029;-66
2023/12/20 05:00:12;;;;;;;20.75;5.32;;;;;;;6.65;100.00;101130.59;5019453;28;20068;-66
2023/12/20 05:02:37;;;;;;;18.30;5.20;;;;;;;6.49;100.00;101137.25;5017479;28;20033;-66
2023/12/20 05:05:03;;;;;;;20.38;5.57;;;;;;;6.36;100.00;101127.63;5005981;28;20041;-67
2023/12/20 05:07:28;;;;;;;15.85;5.00;;;;;;;6.24;100.00;101133.44;5024052;28;20021;-66
2023/12/20 05:09:54;;;;;;;15.05;5.00;;;;;;;6.17;100.00;101126.47;5014795;28;20820;-66
2023/12/20 05:12:19;;;;;;;15.85;4.78;;;;;;;6.08;100.00;101125.50;5002962;28;20598;-66
2023/12/20 05:14:46;;;;;;;18.33;4.80;;;;;;;6.02;100.00;101130.53;5009542;28;20117;-66
2023/12/20 05:17:11;;;;;;;15.18;4.65;;;;;;;5.98;100.00;101134.75;5013989;28;20483;-66
2023/12/20 05:19:37;;;;;;;20.45;4.72;;;;;;;5.97;100.00;101132.16;5004534;28;20456;-66
2023/12/20 05:22:02;;;;;;;18.58;5.78;;;;;;;5.90;100.00;101133.78;5005969;28;20496;-66
2023/12/20 05:24:28;;;;;;;17.38;5.38;;;;;;;5.87;100.00;101126.03;5005306;28;20044;-67
2023/12/20 05:26:54;;;;;;;15.45;6.03;;;;;;;5.90;100.00;101118.38;5004435;28;20079;-66
2023/12/20 05:29:20;;;;;;;15.00;5.70;;;;;;;5.85;100.00;101111.44;5001883;28;20511;-68
2023/12/20 05:31:45;;;;;;;20.55;5.43;;;;;;;5.83;100.00;101124.25;5021923;28;20030;-69
2023/12/20 05:34:10;;;;;;;27.90;6.07;;;;;;;5.88;100.00;101129.44;5016012;28;20037;-68
2023/12/20 05:36:36;;;;;;;12.45;5.05;;;;;;;5.92;100.00;101132.09;5010557;28;20671;-68
2023/12/20 05:39:05;;;;;;;16.40;5.50;;;;;;;5.95;100.00;101127.00;5013201;28;20099;-66
2023/12/20 05:41:31;;;;;;;21.15;5.70;;;;;;;5.93;100.00;101110.75;5052699;28;20053;-66
2023/12/20 05:43:57;;;;;;;17.73;4.93;;;;;;;5.90;100.00;101120.09;5026582;28;20045;-66
2023/12/20 05:46:24;;;;;;;20.48;5.07;;;;;;;5.92;100.00;101136.34;5022036;28;20033;-67
2023/12/20 05:48:49;;;;;;;12.00;4.43;;;;;;;5.89;100.00;101134.59;5019751;28;20033;-66
2023/12/20 05:51:15;;;;;;;16.50;4.65;;;;;;;5.87;100.00;101143.13;5024964;28;20111;-67
2023/12/20 05:53:40;;;;;;;19.83;4.93;;;;;;;5.95;100.00;101133.84;5017042;28;20060;-67
2023/12/20 05:56:06;;;;;;;15.75;4.75;;;;;;;6.00;100.00;101135.63;5011650;28;20033;-67
2023/12/20 05:58:32;;;;;;;15.02;5.30;;;;;;;6.04;100.00;101136.56;5005889;28;20026;-67
2023/12/20 06:00:58;;;;;;;16.25;4.53;;;;;;;6.05;100.00;101131.44;5025785;28;20404;-68
2023/12/20 06:03:23;;;;;;;12.30;4.40;;;;;;;6.16;100.00;101121.34;5015679;28;20245;-68
2023/12/20 06:05:49;;;;;;;25.40;5.57;;;;;;;6.23;100.00;101128.28;5013630;28;20049;-68
2023/12/20 06:08:14;;;;;;;20.52;4.35;;;;;;;6.21;100.00;101120.56;5050813;28;20040;-68
2023/12/20 06:10:40;;;;;;;16.10;4.15;;;;;;;6.20;100.00;101128.25;5007532;28;20768;-69
2023/12/20 06:13:06;;;;;;;21.58;4.78;;;;;;;6.25;100.00;101130.06;5019544;28;20105;-68
2023/12/20 06:15:32;;;;;;;20.27;4.82;;;;;;;6.25;100.00;101144.59;5016097;28;20087;-68
2023/12/20 06:17:57;;;;;;;22.77;5.97;;;;;;;6.22;100.00;101139.41;5027519;28;20080;-68
2023/12/20 06:20:23;;;;;;;22.13;5.00;;;;;;;6.21;100.00;101143.66;5019995;28;20041;-68
2023/12/20 06:22:48;;;;;;;22.38;5.72;;;;;;;6.22;100.00;101140.28;5018301;28;20917;-68
2023/12/20 06:25:14;;;;;;;23.25;4.80;;;;;;;6.22;100.00;101136.84;5021526;28;20163;-67
2023/12/20 06:27:40;;;;;;;19.88;5.07;;;;;;;6.24;100.00;101137.72;5009312;28;20125;-67
2023/12/20 06:30:07;;;;;;;16.42;4.35;;;;;;;6.26;100.00;101138.59;5014464;28;20182;-67
2023/12/20 06:35:54;;;;;;;19.23;5.00;;;;;;;6.34;100.00;101137.88;4997992;28;20893;-67
2023/12/20 06:38:20;;;;;;;22.58;4.57;;;;;;;6.40;100.00;101144.81;5005051;28;20045;-67
2023/12/20 06:40:46;;;;;;;20.10;4.97;;;;;;;6.45;100.00;101147.44;5007992;28;20033;-67
2023/12/20 06:43:13;;;;;;;17.95;3.90;;;;;;;6.48;100.00;101140.63;5013239;28;20087;-67
2023/12/20 06:45:39;;;;;;;13.75;4.57;;;;;;;6.49;100.00;101137.25;5010960;28;20474;-67
2023/12/20 06:48:05;;;;;;;20.17;6.07;;;;;;;6.53;100.00;101149.25;5014272;28;20042;-67
2023/12/20 06:50:30;;;;;;;21.42;4.47;;;;;;;6.59;100.00;101145.91;5021028;28;20037;-67
2023/12/20 06:52:56;;;;;;;17.70;4.07;;;;;;;6.61;100.00;101141.69;5018456;28;20025;-67
2023/12/20 06:55:21;;;;;;;15.75;4.82;;;;;;;6.60;100.00;101145.94;5008868;28;20052;-67
2023/12/20 06:57:47;;;;;;;20.63;5.32;;;;;;;6.64;100.00;101150.28;5020235;28;20049;-68
2023/12/20 07:00:13;;;;;;;28.33;5.15;;;;;;;6.71;100.00;101136.66;5020865;28;20114;-67
2023/12/20 07:02:38;;;;;;;16.27;4.72;;;;;;;6.74;100.00;101134.16;5017971;28;20062;-67
2023/12/20 07:05:04;;;;;;;17.15;4.65;;;;;;;6.73;100.00;101129.84;5003179;28;20151;-67
2023/12/20 07:07:30;;;;;;;13.07;3.92;;;;;;;6.70;100.00;101134.97;5011589;28;20527;-67
2023/12/20 07:09:55;;;;;;;24.50;5.45;;;;;;;6.72;100.00;101142.69;5014738;28;20187;-68
2023/12/20 07:12:20;;;;;;;17.65;4.13;;;;;;;6.71;100.00;101146.94;5010234;28;20127;-68
2023/12/20 07:14:46;;;;;;;15.90;4.10;;;;;;;6.74;100.00;101154.69;5020327;28;20041;-67
2023/12/20 07:17:13;;;;;;;20.20;4.03;;;;;;;6.72;100.00;101161.53;5017251;28;20034;-68
2023/12/20 07:19:39;;;;;;;13.50;4.45;;;;;;;6.77;100.00;101156.44;5021059;28;20040;-68
2023/12/20 07:22:06;;;;;;;19.27;4.50;;;;;;;6.77;100.00;101157.31;5017530;28;20034;-68
2023/12/20 07:24:32;;;;;;;21.50;4.28;;;;;;;6.81;100.00;101163.34;5016628;28;20136;-67
2023/12/20 07:26:57;;;;;;;18.73;3.95;;;;;;;6.81;100.00;101169.38;5016609;28;20551;-68
2023/12/20 07:29:23;;;;;;;18.75;4.13;;;;;;;6.82;100.00;101160.78;5017025;28;20511;-68
2023/12/20 07:31:48;;;;;;;20.75;3.85;;;;;;;6.91;100.00;101150.63;5002193;28;20119;-68
2023/12/20 07:34:13;;;;;;;17.75;4.18;;;;;;;6.91;100.00;101163.47;5018324;28;20041;-68
2023/12/20 07:36:39;;;;;;;21.00;4.25;;;;;;;6.89;100.00;101156.59;5015635;28;20042;-69
2023/12/20 07:39:04;;;;;;;21.23;5.10;;;;;;;6.89;100.00;101154.91;5009212;28;20582;-68
2023/12/20 07:41:30;;;;;;;14.63;3.95;;;;;;;6.90;100.00;101153.19;5014955;28;20037;-68
2023/12/20 07:43:56;;;;;;;14.10;4.45;;;;;;;6.94;100.00;101154.97;5016541;28;20129;-69
2023/12/20 07:46:25;;;;;;;13.63;4.10;;;;;;;6.95;100.00;101156.69;5014304;28;20049;-69
2023/12/20 07:48:50;;;;;;;12.90;3.75;;;;;;;6.99;100.00;101144.72;5019124;28;20108;-68
2023/12/20 07:51:16;;;;;;;15.43;3.97;;;;;;;7.01;100.00;101143.91;5020781;28;20057;-69
2023/12/20 07:53:41;;;;;;;10.85;3.40;;;;;;;7.03;100.00;101142.19;5024606;28;20746;-67
2023/12/20 07:56:14;;;;;;;13.23;4.55;;;;;;;7.03;100.00;101141.38;5017295;28;20168;-67
2023/12/20 07:58:40;;;;;;;11.77;3.17;;;;;;;7.05;100.00;101139.66;5013364;28;20373;-67
2023/12/20 08:01:05;;;;;;;21.15;3.17;;;;;;;7.09;100.00;101137.13;5019511;28;20030;-67
2023/12/20 08:03:52;;;;;;;13.68;3.40;;;;;;;7.10;100.00;101146.59;5023836;28;20049;-67
2023/12/20 08:06:18;;;;;;;19.77;3.90;;;;;;;7.12;100.00;101149.19;5010532;28;20076;-67
2023/12/20 08:08:43;;;;;;;16.20;3.22;;;;;;;7.10;100.00;101149.16;5018621;28;20498;-67
2023/12/20 08:11:27;;;;;;;18.38;3.63;;;;;;;7.12;100.00;101147.44;5009326;28;20374;-67
2023/12/20 08:13:52;;;;;;;18.42;3.70;;;;;;;7.15;100.00;101157.81;5022295;28;20048;-67
2023/12/20 08:16:17;;;;;;;12.90;3.33;;;;;;;7.16;100.00;101156.09;5020073;28;20260;-67
2023/12/20 08:18:43;;;;;;;13.18;3.22;;;;;;;7.16;100.00;101146.69;5015409;28;20045;-67
2023/12/20 08:21:09;;;;;;;14.38;3.47;;;;;;;7.21;100.00;101142.44;5018792;28;20515;-67
2023/12/20 08:23:35;;;;;;;15.40;4.28;;;;;;;7.22;100.00;101153.59;5023037;28;20091;-67
2023/12/20 08:26:05;;;;;;;16.52;3.47;;;;;;;7.24;100.00;101154.50;5005857;28;20859;-67
2023/12/20 08:28:31;;;;;;;19.35;3.72;;;;;;;7.26;100.00;101137.38;5015095;28;20025;-67
2023/12/20 08:30:56;;;;;;;13.57;3.60;;;;;;;7.25;100.00;101144.22;5010211;28;20106;-67
2023/12/20 08:33:22;;;;;;;16.65;3.70;;;;;;;7.24;100.00;101144.22;5051517;28;20439;-67
2023/12/20 08:35:47;;;;;;;11.13;3.63;;;;;;;7.14;100.00;101150.94;5007971;28;20068;-67
2023/12/20 08:38:13;;;;;;;20.70;5.47;;;;;;;7.06;100.00;101149.13;5025733;28;20026;-67
2023/12/20 08:40:38;;;;;;;16.75;3.45;;;;;;;6.98;100.00;101158.41;5011904;28;20388;-67
2023/12/20 08:43:04;;;;;;;13.38;4.35;;;;;;;6.90;100.00;101154.06;5016074;28;20132;-67
2023/12/20 08:45:29;;;;;;;14.60;3.42;;;;;;;6.89;100.00;101149.75;5007261;28;21031;-67
2023/12/20 08:47:54;;;;;;;17.42;3.55;;;;;;;6.86;100.00;101156.56;5020259;28;20049;-66
2023/12/20 08:50:20;;;;;;;16.67;3.53;;;;;;;6.83;100.00;101157.38;5011404;28;20053;-67
2023/12/20 08:52:45;;;;;;;14.63;3.95;;;;;;;6.82;100.00;101167.66;5015984;28;20039;-67
2023/12/20 08:55:11;;;;;;;13.70;3.75;;;;;;;6.79;100.00;101173.59;5021683;28;20037;-67
2023/12/20 08:57:36;;;;;;;13.73;3.60;;;;;;;6.82;100.00;101167.66;5008299;28;20060;-67
2023/12/20 09:00:03;;;;;;;14.85;3.50;;;;;;;6.81;100.00;101169.38;5014369;28;20524;-67
2023/12/20 09:02:28;;;;;;;12.93;3.40;;;;;;;6.89;100.00;101177.16;5016301;28;20583;-66
2023/12/20 09:04:56;;;;;;;9.40;3.80;;;;;;;7.00;100.00;101159.31;5024088;28;20033;-67
2023/12/20 09:07:23;;;;;;;18.70;3.83;;;;;;;7.12;100.00;101160.31;5020063;28;20500;-67
2023/12/20 09:09:49;;;;;;;13.30;3.40;;;;;;;7.18;100.00;101159.56;5010945;28;20033;-66
2023/12/20 09:12:15;;;;;;;17.23;3.63;;;;;;;7.26;99.78;101168.22;5051786;28;20032;-67
2023/12/20 09:14:40;;;;;;;15.52;3.45;;;;;;;7.30;99.11;101159.69;5020907;28;20049;-67
2023/12/20 09:17:08;;;;;;;11.43;2.75;;;;;;;7.37;98.47;101151.19;5020910;28;21150;-66
2023/12/20 09:19:34;;;;;;;16.27;3.13;;;;;;;7.42;97.92;101149.53;5008785;28;20033;-67
2023/12/20 09:21:59;;;;;;;11.20;3.13;;;;;;;7.48;97.89;101154.75;5024180;28;20500;-67
2023/12/20 09:24:25;;;;;;;15.00;3.15;;;;;;;7.53;97.28;101144.50;5017788;28;20542;-67
2023/12/20 09:26:50;;;;;;;8.55;2.90;;;;;;;7.57;96.83;101154.84;5018494;28;20033;-67
2023/12/20 09:29:17;;;;;;;11.80;3.80;;;;;;;7.61;95.91;101138.59;4997243;28;20041;-67
2023/12/20 09:31:43;;;;;;;11.60;2.97;;;;;;;7.63;96.49;101136.88;5023435;28;20095;-67
2023/12/20 09:34:09;;;;;;;21.23;3.88;;;;;;;7.65;96.46;101140.34;5016210;28;20048;-67
2023/12/20 09:36:36;;;;;;;14.82;3.83;;;;;;;7.69;96.00;101139.53;5018476;28;20033;-67
2023/12/20 09:39:02;;;;;;;11.35;3.78;;;;;;;7.70;95.46;101135.25;5051467;28;20048;-67
2023/12/20 09:41:32;;;;;;;20.67;3.83;;;;;;;7.73;95.51;101135.28;5018480;28;20038;-67
2023/12/20 09:44:02;;;;;;;13.55;3.15;;;;;;;7.68;96.21;101134.38;5018062;28;20038;-67
2023/12/20 09:46:32;;;;;;;17.30;3.70;;;;;;;7.69;96.56;101143.78;5004371;28;20594;-67
2023/12/20 09:49:00;;;;;;;13.93;3.50;;;;;;;7.68;96.12;101132.66;5017511;28;20034;-67
2023/12/20 09:51:28;;;;;;;14.75;3.05;;;;;;;7.69;94.90;101129.22;5019338;28;20518;-67
2023/12/20 09:53:54;;;;;;;11.40;2.97;;;;;;;7.74;94.57;101125.00;5017791;28;20034;-67
2023/12/20 09:56:20;;;;;;;15.00;3.15;;;;;;;7.72;95.61;101134.41;5013240;28;20080;-66
2023/12/20 09:58:46;;;;;;;11.77;3.10;;;;;;;7.73;95.71;101132.69;5018272;28;20029;-66
2023/12/20 10:01:13;;;;;;;10.88;3.92;;;;;;;7.74;95.95;101124.13;5011976;28;20424;-66
2023/12/20 10:03:40;;;;;;;17.80;3.53;;;;;;;7.78;95.09;101120.72;5020700;28;20153;-67
2023/12/20 10:06:07;;;;;;;16.77;3.40;;;;;;;7.79;95.39;101122.47;5022877;28;20048;-66
2023/12/20 10:08:32;;;;;;;9.63;2.70;;;;;;;7.79;94.54;101110.47;5019146;28;20051;-66
2023/12/20 10:11:02;;;;;;;19.58;3.90;;;;;;;7.81;95.54;101120.75;5015879;28;20025;-67
2023/12/20 10:13:28;;;;;;;13.95;3.60;;;;;;;7.81;94.77;101126.75;5023399;28;20070;-67
2023/12/20 10:15:55;;;;;;;14.93;3.42;;;;;;;7.82;95.13;101125.06;5014031;28;20566;-67
2023/12/20 10:18:21;;;;;;;19.40;3.65;;;;;;;7.84;95.49;101120.78;5008729;28;20282;-67
2023/12/20 10:20:49;;;;;;;14.38;3.97;;;;;;;7.82;94.99;101120.78;5014896;28;20033;-67
2023/12/20 10:23:16;;;;;;;13.63;3.45;;;;;;;7.81;95.54;101121.63;5021185;28;20484;-66
2023/12/20 10:25:41;;;;;;;11.88;2.83;;;;;;;7.80;96.50;101132.75;5026490;28;20061;-67
2023/12/20 10:28:11;;;;;;;12.85;3.72;;;;;;;7.79;96.63;101132.75;5013872;28;20083;-66
2023/12/20 10:30:38;;;;;;;11.55;3.03;;;;;;;7.80;95.82;101127.59;5018235;28;20813;-66
2023/12/20 10:33:10;;;;;;;13.20;3.20;;;;;;;7.80;95.80;101122.47;5024252;28;20033;-67
2023/12/20 10:35:37;;;;;;;13.73;3.15;;;;;;;7.83;96.25;101124.22;5007329;28;20124;-67
2023/12/20 10:38:06;;;;;;;17.98;3.72;;;;;;;7.88;93.88;101101.94;5020114;28;20035;-67
2023/12/20 10:40:36;;;;;;;13.10;3.70;;;;;;;7.96;95.42;101123.44;5016434;28;20025;-67
2023/12/20 10:43:02;;;;;;;13.63;2.60;;;;;;;8.01;94.12;101096.88;5023173;28;20084;-67
2023/12/20 10:45:28;;;;;;;12.93;3.10;;;;;;;8.07;93.78;101095.22;5019737;28;20071;-67
2023/12/20 10:47:53;;;;;;;17.10;3.58;;;;;;;8.15;94.73;101094.44;5026614;28;20057;-67
2023/12/20 10:50:20;;;;;;;17.90;3.67;;;;;;;8.15;93.41;101072.97;5024103;28;20051;-67
2023/12/20 10:52:46;;;;;;;18.33;4.10;;;;;;;8.19;93.45;101070.41;5025327;28;20037;-67
2023/12/20 10:55:15;;;;;;;18.10;2.97;;;;;;;8.20;93.43;101068.69;5021238;28;20136;-67
2023/12/20 10:57:41;;;;;;;15.55;3.13;;;;;;;8.27;93.56;101075.63;5013571;28;20042;-67
2023/12/20 11:00:13;;;;;;;15.93;3.42;;;;;;;8.33;93.66;101073.09;5019355;28;20088;-67
2023/12/20 11:02:40;;;;;;;14.85;3.13;;;;;;;8.31;92.55;101064.47;5028553;28;20049;-67
2023/12/20 11:05:23;;;;;;;11.50;3.25;;;;;;;8.33;92.19;101062.78;5025253;28;20029;-67
2023/12/20 11:08:06;;;;;;;13.27;2.75;;;;;;;8.25;92.22;101064.47;5024088;28;20033;-67
2023/12/20 11:10:51;;;;;;;12.02;3.42;;;;;;;8.26;92.45;101072.19;5013946;28;20672;-67
2023/12/20 11:13:22;;;;;;;11.70;3.13;;;;;;;8.22;92.95;101078.16;5018214;28;20062;-67
2023/12/20 11:15:48;;;;;;;13.48;3.00;;;;;;;8.18;93.95;101089.31;5019365;28;20100;-67
2023/12/20 11:18:15;;;;;;;13.27;4.13;;;;;;;8.20;93.35;101073.84;5022864;28;20034;-67